Time;durP1;ratioP1;P1;durP2;ratioP2;P2;SDS_P1;SDS_P2;PMS_P1;PMS_P2;Temp;Humidity;BMP_temperature;BMP_pressure;BME280_temperature;BME280_humidity;BME280_pressure;Samples;Min_cycle;Max_cycle;Signal;HPM_P1;HPM_P2
2023/07/08 00:01:42;;;;;;;5.57;3.70;;;16.40;99.90;;;;;;5092122;28;20063;-63
2023/07/08 00:04:08;;;;;;;6.13;2.90;;;16.40;99.90;;;;;;5092451;28;20035;-64
2023/07/08 00:06:35;;;;;;;5.93;3.50;;;16.40;99.90;;;;;;5092154;28;20108;-63
2023/07/08 00:09:01;;;;;;;4.85;3.75;;;16.40;99.90;;;;;;5092289;28;20442;-63
2023/07/08 00:11:28;;;;;;;9.55;3.83;;;16.50;99.90;;;;;;5092363;28;20084;-65
2023/07/08 00:13:54;;;;;;;4.78;3.78;;;16.50;99.90;;;;;;5092355;28;20038;-64
2023/07/08 00:16:20;;;;;;;4.85;3.10;;;16.20;99.90;;;;;;5092396;28;20044;-63
2023/07/08 00:18:46;;;;;;;6.10;3.17;;;16.20;99.90;;;;;;5107625;28;20040;-63
2023/07/08 00:21:15;;;;;;;6.70;3.53;;;16.20;99.90;;;;;;5092262;28;20115;-63
2023/07/08 00:23:45;;;;;;;6.13;3.78;;;16.20;99.90;;;;;;5092046;28;20077;-63
2023/07/08 00:26:24;;;;;;;6.18;3.75;;;16.20;99.90;;;;;;5092817;28;20056;-64
2023/07/08 00:28:50;;;;;;;5.30;3.90;;;16.10;99.90;;;;;;5095774;28;20044;-63
2023/07/08 00:31:16;;;;;;;4.63;3.63;;;16.10;99.90;;;;;;5094705;28;20071;-64
2023/07/08 00:33:41;;;;;;;4.82;3.65;;;16.70;99.90;;;;;;5095708;28;20162;-63
2023/07/08 00:36:15;;;;;;;6.63;4.07;;;16.10;99.90;;;;;;5095774;28;20368;-63
2023/07/08 00:38:44;;;;;;;4.03;3.40;;;16.00;99.90;;;;;;5095687;28;20043;-63
2023/07/08 00:41:36;;;;;;;5.60;3.90;;;16.00;99.90;;;;;;5095472;28;20055;-63
2023/07/08 00:44:02;;;;;;;7.38;4.03;;;16.00;99.90;;;;;;5095611;28;20062;-63
2023/07/08 00:46:31;;;;;;;8.02;3.63;;;16.00;99.90;;;;;;5095606;28;20039;-63
2023/07/08 00:49:06;;;;;;;8.73;3.75;;;16.00;99.90;;;;;;5095435;28;20040;-63
2023/07/08 00:51:32;;;;;;;5.95;3.75;;;15.90;99.90;;;;;;5095485;28;20449;-63
2023/07/08 00:53:57;;;;;;;11.82;3.90;;;15.90;99.90;;;;;;5095373;28;20035;-64
2023/07/08 00:56:33;;;;;;;9.15;4.03;;;15.90;99.90;;;;;;5095274;28;20036;-63
2023/07/08 00:59:04;;;;;;;5.22;3.28;;;15.90;99.90;;;;;;5095287;28;20054;-64
2023/07/08 01:01:35;;;;;;;5.80;4.10;;;16.20;99.90;;;;;;5095297;28;20075;-63
2023/07/08 01:04:09;;;;;;;6.95;3.55;;;15.90;99.90;;;;;;5095269;28;20172;-63
2023/07/08 01:06:39;;;;;;;6.80;3.67;;;15.90;99.90;;;;;;5094916;28;20075;-63
2023/07/08 01:09:06;;;;;;;;;;;15.80;99.90;;;;;;5095566;28;20037;-63
2023/07/08 01:11:33;;;;;;;4.88;3.13;;;15.70;99.90;;;;;;5095172;28;19926;-63
2023/07/08 01:14:01;;;;;;;7.93;4.03;;;15.80;99.90;;;;;;5094962;28;20089;-63
2023/07/08 01:16:27;;;;;;;7.38;3.90;;;15.80;99.90;;;;;;5094812;28;20089;-63
2023/07/08 01:18:53;;;;;;;8.15;4.30;;;15.80;99.90;;;;;;5094846;28;20040;-63
2023/07/08 01:21:34;;;;;;;7.10;4.03;;;15.80;99.90;;;;;;5094869;28;20440;-63
2023/07/08 01:24:02;;;;;;;7.32;4.13;;;15.80;99.90;;;;;;5094592;28;20416;-64
2023/07/08 01:26:30;;;;;;;9.98;5.15;;;15.80;99.90;;;;;;5093230;28;20052;-63
2023/07/08 01:28:56;;;;;;;7.22;3.88;;;15.80;99.90;;;;;;5093201;28;20055;-63
2023/07/08 01:31:23;;;;;;;6.90;4.43;;;15.80;99.90;;;;;;5094715;28;20039;-64
2023/07/08 01:33:50;;;;;;;6.07;4.25;;;15.70;99.90;;;;;;5094547;28;20036;-64
2023/07/08 01:36:17;;;;;;;6.25;4.43;;;18.10;99.90;;;;;;5094533;28;20036;-63
2023/07/08 01:38:44;;;;;;;6.93;4.90;;;15.70;99.90;;;;;;5093389;28;20040;-63
2023/07/08 01:41:14;;;;;;;8.10;4.50;;;15.80;99.90;;;;;;5094200;28;20036;-63
2023/07/08 01:43:40;;;;;;;5.40;4.25;;;16.30;99.90;;;;;;5094242;28;20548;-63
2023/07/08 01:46:28;;;;;;;10.00;4.50;;;16.00;99.90;;;;;;5094423;28;20037;-63
2023/07/08 01:48:59;;;;;;;6.47;4.10;;;15.70;99.90;;;;;;5094253;28;20522;-64
2023/07/08 01:51:26;;;;;;;5.47;3.92;;;15.60;99.90;;;;;;5093965;28;20036;-63
2023/07/08 01:53:52;;;;;;;6.50;3.92;;;15.60;99.90;;;;;;5093982;28;20044;-63
2023/07/08 01:56:17;;;;;;;7.53;4.15;;;16.00;99.90;;;;;;5094212;28;20043;-63
2023/07/08 01:58:43;;;;;;;8.80;4.10;;;15.50;99.90;;;;;;5094117;28;20097;-63
2023/07/08 02:01:09;;;;;;;6.55;4.43;;;15.50;99.90;;;;;;5092856;28;20070;-63
2023/07/08 02:03:35;;;;;;;9.18;4.50;;;15.90;99.90;;;;;;5094097;28;20036;-63
2023/07/08 02:06:02;;;;;;;7.95;4.45;;;15.50;99.90;;;;;;5107135;22;20052;-59
2023/07/08 02:08:27;;;;;;;5.50;4.40;;;15.50;99.90;;;;;;5094119;28;20048;-60
2023/07/08 02:10:56;;;;;;;9.32;4.80;;;15.60;99.90;;;;;;5094154;28;20036;-60
2023/07/08 02:13:23;;;;;;;7.32;4.28;;;17.60;99.90;;;;;;5076023;28;20123;-60
2023/07/08 02:15:49;;;;;;;7.05;4.22;;;15.40;99.90;;;;;;5094003;28;20044;-60
2023/07/08 02:18:15;;;;;;;8.10;3.85;;;15.30;99.90;;;;;;5094047;28;20369;-59
2023/07/08 02:20:42;;;;;;;6.82;3.78;;;15.30;99.90;;;;;;5075541;28;20115;-59
2023/07/08 02:23:08;;;;;;;6.72;4.18;;;15.30;99.90;;;;;;5075551;28;20212;-59
2023/07/08 02:25:34;;;;;;;7.82;4.30;;;15.20;99.90;;;;;;5075472;28;20060;-59
2023/07/08 02:27:59;;;;;;;8.40;4.40;;;15.60;99.90;;;;;;5093840;28;20536;-60
2023/07/08 02:30:26;;;;;;;8.50;4.38;;;15.10;99.90;;;;;;5093518;28;20036;-59
2023/07/08 02:32:58;;;;;;;7.53;4.22;;;15.10;99.90;;;;;;5093694;28;20028;-59
2023/07/08 02:35:29;;;;;;;8.27;4.53;;;15.10;99.90;;;;;;5093794;28;20117;-59
2023/07/08 02:37:56;;;;;;;7.22;4.15;;;15.00;99.90;;;;;;5093673;28;20157;-59
2023/07/08 02:40:23;;;;;;;6.00;4.30;;;15.00;99.90;;;;;;5093601;28;20040;-59
2023/07/08 02:42:48;;;;;;;6.32;3.95;;;14.90;1.00;;;;;;5093659;28;20048;-59
2023/07/08 02:45:15;;;;;;;8.73;4.78;;;14.90;1.00;;;;;;5075116;28;20047;-59
2023/07/08 02:47:41;;;;;;;6.13;4.57;;;14.90;1.00;;;;;;5093479;28;20394;-59
2023/07/08 02:50:08;;;;;;;8.13;5.00;;;15.40;1.00;;;;;;5092765;28;20119;-59
2023/07/08 02:52:34;;;;;;;6.35;4.45;;;14.80;1.00;;;;;;5093135;28;20115;-60
2023/07/08 02:55:00;;;;;;;7.85;4.72;;;14.80;4.30;;;;;;5093063;28;20082;-59
2023/07/08 02:57:25;;;;;;;7.53;4.50;;;14.80;99.90;;;;;;5093431;28;20114;-59
2023/07/08 02:59:51;;;;;;;6.03;3.92;;;14.80;65.30;;;;;;5093632;28;20036;-59
2023/07/08 03:02:16;;;;;;;6.57;4.50;;;14.70;74.30;;;;;;5075107;28;20372;-59
2023/07/08 03:04:42;;;;;;;7.03;4.82;;;14.70;59.00;;;;;;5092995;28;20135;-59
2023/07/08 03:07:11;;;;;;;8.23;4.43;;;14.70;99.60;;;;;;5093254;28;20572;-59
2023/07/08 03:09:40;;;;;;;9.07;4.53;;;14.60;99.90;;;;;;5093048;28;20398;-60
2023/07/08 03:12:07;;;;;;;5.90;4.20;;;14.70;99.90;;;;;;5074857;28;20504;-59
2023/07/08 03:14:33;;;;;;;8.25;4.30;;;14.60;99.90;;;;;;5092866;28;20036;-59
2023/07/08 03:16:59;;;;;;;7.07;4.72;;;14.60;99.90;;;;;;5093036;28;20102;-59
2023/07/08 03:19:25;;;;;;;5.88;4.40;;;15.40;99.90;;;;;;5092868;28;20036;-59
2023/07/08 03:21:51;;;;;;;9.07;4.53;;;14.60;99.90;;;;;;5092775;28;20165;-59
2023/07/08 03:24:18;;;;;;;9.02;4.57;;;14.60;99.90;;;;;;5092757;28;20049;-59
2023/07/08 03:26:45;;;;;;;6.13;4.93;;;14.60;99.90;;;;;;5092978;28;20047;-59
2023/07/08 03:29:17;;;;;;;7.53;4.32;;;14.60;99.90;;;;;;5057920;28;20044;-59
2023/07/08 03:31:43;;;;;;;10.57;5.80;;;14.60;99.90;;;;;;5058083;28;20040;-59
2023/07/08 03:34:16;;;;;;;5.55;4.20;;;14.60;99.90;;;;;;5092851;28;20036;-60
2023/07/08 03:36:50;;;;;;;7.20;4.82;;;14.60;99.90;;;;;;5092943;28;20119;-59
2023/07/08 03:39:21;;;;;;;8.43;4.97;;;14.60;99.90;;;;;;5092889;28;20040;-59
2023/07/08 03:41:48;;;;;;;7.32;4.90;;;14.60;99.90;;;;;;5092659;28;20115;-60
2023/07/08 03:44:17;;;;;;;10.65;4.75;;;14.60;99.90;;;;;;5074632;28;20119;-59
2023/07/08 03:46:49;;;;;;;6.63;4.93;;;14.60;99.90;;;;;;5092777;28;20085;-59
2023/07/08 03:49:16;;;;;;;8.20;4.88;;;14.60;1.00;;;;;;5074530;28;20115;-59
2023/07/08 03:51:42;;;;;;;7.57;5.10;;;14.60;1.00;;;;;;5057762;28;20050;-59
2023/07/08 03:54:12;;;;;;;7.72;5.15;;;14.60;62.80;;;;;;5074380;28;20048;-60
2023/07/08 03:56:38;;;;;;;8.95;5.07;;;15.40;1.00;;;;;;5092473;28;20036;-60
2023/07/08 03:59:04;;;;;;;9.07;4.68;;;14.60;99.90;;;;;;5092435;28;20047;-59
2023/07/08 04:01:30;;;;;;;7.28;4.75;;;14.60;1.00;;;;;;5075348;28;20036;-60
2023/07/08 04:03:57;;;;;;;5.82;4.35;;;14.60;70.40;;;;;;5078321;28;20066;-61
2023/07/08 04:06:24;;;;;;;7.60;4.40;;;14.70;79.80;;;;;;5096835;28;20048;-60
2023/07/08 04:08:50;;;;;;;8.80;5.15;;;14.70;98.00;;;;;;5096407;28;20447;-60
2023/07/08 04:11:21;;;;;;;7.55;4.85;;;14.70;99.90;;;;;;5078333;28;20123;-60
2023/07/08 04:13:47;;;;;;;7.82;4.78;;;14.80;84.70;;;;;;5096184;28;20110;-60
2023/07/08 04:16:30;;;;;;;7.75;5.03;;;14.80;20.70;;;;;;5096010;28;20040;-60
2023/07/08 04:18:56;;;;;;;9.75;4.75;;;14.90;99.90;;;;;;5096330;28;20056;-60
2023/07/08 04:21:25;;;;;;;8.48;4.97;;;14.90;99.90;;;;;;5078132;28;20040;-60
2023/07/08 04:23:51;;;;;;;7.38;4.95;;;14.90;1.00;;;;;;5096112;28;20044;-60
2023/07/08 04:26:18;;;;;;;10.52;5.45;;;14.90;1.00;;;;;;5061086;28;20102;-60
2023/07/08 04:28:44;;;;;;;10.15;5.57;;;15.00;1.00;;;;;;5077565;28;20123;-60
2023/07/08 04:31:10;;;;;;;8.00;5.30;;;15.40;99.90;;;;;;5077680;28;20040;-60
2023/07/08 04:33:36;;;;;;;9.38;5.60;;;15.10;22.80;;;;;;5096052;28;20036;-60
2023/07/08 04:36:02;;;;;;;9.73;5.65;;;15.10;34.30;;;;;;5077839;28;20036;-60
2023/07/08 04:38:28;;;;;;;10.52;5.30;;;15.20;99.90;;;;;;5095926;28;20056;-60
2023/07/08 04:40:54;;;;;;;8.13;4.88;;;15.20;28.10;;;;;;5095905;28;20040;-60
2023/07/08 04:43:21;;;;;;;6.07;4.70;;;15.30;1.00;;;;;;5095851;28;20521;-60
2023/07/08 04:45:52;;;;;;;7.60;5.75;;;15.40;1.00;;;;;;5077706;28;20036;-60
2023/07/08 04:48:21;;;;;;;8.13;5.18;;;15.40;1.00;;;;;;5095669;28;20480;-60
2023/07/08 04:50:49;;;;;;;8.85;5.15;;;15.50;99.90;;;;;;5077249;28;20047;-60
2023/07/08 04:53:15;;;;;;;7.35;5.50;;;15.60;99.90;;;;;;5095669;28;20043;-60
2023/07/08 04:55:55;;;;;;;9.02;5.22;;;15.60;99.90;;;;;;5095591;28;20036;-60
2023/07/08 04:58:21;;;;;;;7.13;5.13;;;15.70;1.00;;;;;;5095611;28;20115;-60
2023/07/08 05:00:47;;;;;;;6.25;4.70;;;15.80;99.90;;;;;;5095582;28;20568;-59
2023/07/08 05:03:13;;;;;;;5.93;4.78;;;15.70;99.90;;;;;;5095456;28;20192;-60
2023/07/08 05:05:38;;;;;;;6.65;4.75;;;15.90;99.90;;;;;;5076866;28;20044;-60
2023/07/08 05:08:05;;;;;;;6.57;4.93;;;16.00;99.90;;;;;;5095399;28;20471;-60
2023/07/08 05:10:31;;;;;;;8.48;5.40;;;16.10;99.90;;;;;;5060133;28;20032;-60
2023/07/08 05:12:56;;;;;;;9.70;4.75;;;16.10;99.90;;;;;;5095123;28;20082;-60
2023/07/08 05:15:22;;;;;;;9.50;5.28;;;16.20;99.90;;;;;;5094987;28;20036;-59
2023/07/08 05:17:50;;;;;;;7.15;4.88;;;16.30;99.90;;;;;;5095121;28;20435;-60
2023/07/08 05:20:18;;;;;;;5.65;4.70;;;16.40;99.90;;;;;;5076794;28;20052;-60
2023/07/08 05:22:44;;;;;;;8.23;4.68;;;16.40;1.00;;;;;;5076910;28;20040;-60
2023/07/08 05:25:11;;;;;;;8.13;5.25;;;16.60;99.90;;;;;;5095022;28;20411;-59
2023/07/08 05:27:37;;;;;;;8.82;5.03;;;16.60;99.90;;;;;;5094963;28;20454;-60
2023/07/08 05:30:05;;;;;;;7.82;4.55;;;16.80;99.90;;;;;;5094873;28;20115;-60
2023/07/08 05:32:31;;;;;;;6.43;4.20;;;16.80;99.90;;;;;;5076511;28;20074;-60
2023/07/08 05:34:56;;;;;;;6.97;4.80;;;17.00;99.90;;;;;;5093349;28;20402;-60
2023/07/08 05:37:25;;;;;;;9.02;4.85;;;17.00;99.90;;;;;;5094809;28;20429;-60
2023/07/08 05:39:54;;;;;;;7.38;5.10;;;17.10;99.90;;;;;;5094709;28;20096;-60
2023/07/08 05:42:21;;;;;;;11.68;4.78;;;17.20;97.30;;;;;;5094713;28;20066;-60
2023/07/08 05:44:47;;;;;;;5.43;4.47;;;17.40;68.00;;;;;;5094590;28;20040;-60
2023/07/08 05:47:13;;;;;;;5.50;4.38;;;17.50;73.40;;;;;;5094649;28;20044;-60
2023/07/08 05:49:39;;;;;;;7.43;5.10;;;17.50;22.70;;;;;;5076184;28;20051;-60
2023/07/08 05:52:10;;;;;;;6.53;4.70;;;17.70;1.00;;;;;;5094603;28;20092;-60
2023/07/08 05:54:39;;;;;;;7.15;4.53;;;17.80;1.00;;;;;;5094566;28;20459;-59
2023/07/08 05:57:06;;;;;;;6.43;4.47;;;17.90;1.00;;;;;;5094449;28;20471;-59
2023/07/08 05:59:32;;;;;;;9.15;4.97;;;17.90;1.00;;;;;;5075955;28;20047;-59
2023/07/08 06:01:58;;;;;;;6.70;4.63;;;18.10;1.00;;;;;;5094296;28;20526;-60
2023/07/08 06:04:23;;;;;;;5.07;4.07;;;18.10;1.00;;;;;;5094069;28;20044;-59
2023/07/08 06:06:49;;;;;;;6.30;4.40;;;18.30;1.00;;;;;;5094251;28;20040;-59
2023/07/08 06:09:14;;;;;;;8.25;4.80;;;18.40;99.90;;;;;;5093850;28;20071;-59
2023/07/08 06:11:40;;;;;;;6.40;4.72;;;18.50;99.90;;;;;;5094051;28;20032;-59
2023/07/08 06:14:06;;;;;;;7.97;4.22;;;18.90;99.90;;;;;;5093795;28;20039;-59
2023/07/08 06:16:32;;;;;;;5.88;4.20;;;18.60;99.90;;;;;;5094064;28;20118;-59
2023/07/08 06:18:57;;;;;;;6.80;4.32;;;18.70;99.90;;;;;;5093967;28;20067;-59
2023/07/08 06:21:23;;;;;;;4.57;3.72;;;18.80;99.90;;;;;;5094017;28;20368;-60
2023/07/08 06:23:49;;;;;;;5.43;3.58;;;19.10;99.90;;;;;;5093390;28;20040;-60
2023/07/08 06:26:15;;;;;;;6.57;3.75;;;19.20;99.90;;;;;;5093851;28;20047;-60
2023/07/08 06:28:40;;;;;;;6.00;4.07;;;19.20;99.90;;;;;;5093678;28;20152;-60
2023/07/08 06:31:06;;;;;;;5.38;3.92;;;19.40;99.90;;;;;;5093792;28;20111;-60
2023/07/08 06:33:32;;;;;;;6.80;3.67;;;19.50;99.90;;;;;;5075299;28;20040;-60
2023/07/08 06:35:57;;;;;;;6.28;4.05;;;19.60;99.90;;;;;;5093406;28;20619;-60
2023/07/08 06:38:23;;;;;;;5.55;3.92;;;19.70;99.90;;;;;;5093634;28;20027;-60
2023/07/08 06:40:49;;;;;;;6.55;4.05;;;19.80;99.90;;;;;;5093537;28;20036;-60
2023/07/08 06:43:15;;;;;;;6.88;4.22;;;20.00;99.90;;;;;;5093571;28;20028;-60
2023/07/08 06:45:42;;;;;;;3.92;3.17;;;20.00;99.90;;;;;;5093509;28;20039;-60
2023/07/08 06:48:08;;;;;;;4.97;3.60;;;20.20;99.90;;;;;;5093519;28;20045;-59
2023/07/08 06:50:33;;;;;;;6.47;3.70;;;20.30;99.90;;;;;;5093467;28;20449;-60
2023/07/08 06:52:59;;;;;;;6.03;3.67;;;20.40;99.90;;;;;;5093397;28;20032;-61
2023/07/08 06:55:24;;;;;;;6.22;3.67;;;20.50;99.90;;;;;;5093388;28;20051;-59
2023/07/08 06:57:50;;;;;;;7.32;4.18;;;20.70;99.90;;;;;;5093368;28;20039;-60
2023/07/08 07:00:16;;;;;;;5.30;3.83;;;20.80;99.90;;;;;;5093338;28;20047;-60
2023/07/08 07:02:43;;;;;;;6.55;3.50;;;20.90;99.90;;;;;;5092872;28;20043;-60
2023/07/08 07:05:09;;;;;;;6.60;3.83;;;21.00;99.90;;;;;;5092841;28;20134;-60
2023/07/08 07:07:35;;;;;;;5.78;3.88;;;21.10;99.90;;;;;;5093192;28;20048;-60
2023/07/08 07:10:00;;;;;;;11.02;3.42;;;21.80;99.90;;;;;;5093149;28;20394;-60
2023/07/08 07:12:26;;;;;;;4.80;3.40;;;21.40;99.90;;;;;;5093136;28;20036;-61
2023/07/08 07:14:53;;;;;;;7.05;3.65;;;21.50;99.90;;;;;;5093080;28;20032;-60
2023/07/08 07:17:23;;;;;;;7.57;3.90;;;21.60;99.90;;;;;;5092998;28;20047;-61
2023/07/08 07:19:48;;;;;;;7.38;3.65;;;21.80;99.90;;;;;;5092974;28;20040;-61
2023/07/08 07:22:15;;;;;;;6.10;3.97;;;21.80;99.90;;;;;;5092680;28;20051;-61
2023/07/08 07:24:40;;;;;;;6.40;4.07;;;21.80;99.90;;;;;;5093012;28;20039;-61
2023/07/08 07:27:06;;;;;;;9.43;3.80;;;22.00;99.90;;;;;;5092965;28;20468;-61
2023/07/08 07:29:50;;;;;;;4.40;3.72;;;22.10;99.90;;;;;;5092917;28;20093;-61
2023/07/08 07:32:17;;;;;;;7.97;3.88;;;22.20;99.90;;;;;;5092932;28;20047;-61
2023/07/08 07:34:46;;;;;;;5.97;3.40;;;22.30;99.90;;;;;;5092834;28;20127;-60
2023/07/08 07:37:13;;;;;;;11.05;3.65;;;22.30;99.90;;;;;;5076950;28;20115;-61
2023/07/08 07:39:39;;;;;;;5.35;3.90;;;22.40;99.90;;;;;;5096880;28;20142;-60
2023/07/08 07:42:05;;;;;;;6.28;3.67;;;22.60;99.90;;;;;;5095681;28;20074;-61
2023/07/08 07:44:31;;;;;;;5.38;3.55;;;22.70;99.90;;;;;;5096926;28;20040;-61
2023/07/08 07:46:56;;;;;;;5.32;3.45;;;22.80;99.90;;;;;;5096807;28;20043;-62
2023/07/08 07:49:22;;;;;;;8.02;3.45;;;23.00;99.90;;;;;;5096684;28;20088;-61
2023/07/08 07:51:48;;;;;;;5.25;3.28;;;23.00;99.90;;;;;;5096556;28;20039;-61
2023/07/08 07:54:14;;;;;;;4.75;3.20;;;23.10;99.90;;;;;;5096809;28;20039;-61
2023/07/08 07:56:40;;;;;;;7.07;3.47;;;23.20;99.90;;;;;;5096714;28;20162;-61
2023/07/08 07:59:06;;;;;;;5.15;3.15;;;23.30;99.90;;;;;;5096727;28;20127;-61
2023/07/08 08:01:31;;;;;;;4.07;2.97;;;23.30;99.90;;;;;;5096924;28;20471;-63
2023/07/08 08:03:57;;;;;;;4.95;3.42;;;23.50;99.90;;;;;;5096139;28;20032;-62
2023/07/08 08:06:22;;;;;;;6.22;3.40;;;23.50;99.90;;;;;;5096513;28;20048;-62
2023/07/08 08:08:49;;;;;;;4.57;2.80;;;23.60;99.90;;;;;;5096448;28;20066;-62
2023/07/08 08:11:15;;;;;;;4.40;3.10;;;24.00;99.90;;;;;;5096202;28;20036;-64
2023/07/08 08:13:40;;;;;;;8.25;3.20;;;23.70;99.90;;;;;;5096373;28;20032;-61
2023/07/08 08:16:06;;;;;;;4.88;2.67;;;23.90;99.90;;;;;;5096405;28;20471;-61
2023/07/08 08:18:32;;;;;;;4.53;3.53;;;24.00;99.90;;;;;;5096118;28;20039;-60
2023/07/08 08:20:57;;;;;;;5.18;2.92;;;24.10;99.90;;;;;;5096041;28;20046;-61
2023/07/08 08:23:23;;;;;;;7.07;2.95;;;24.00;99.90;;;;;;5061163;28;20119;-61
2023/07/08 08:25:50;;;;;;;4.10;3.03;;;24.20;99.90;;;;;;5096163;28;20118;-61
2023/07/08 08:28:16;;;;;;;5.05;3.03;;;24.20;99.90;;;;;;5077652;28;20043;-61
2023/07/08 08:30:46;;;;;;;4.05;2.65;;;24.40;99.90;;;;;;5095663;28;20036;-61
2023/07/08 08:33:12;;;;;;;4.07;2.63;;;24.40;99.90;;;;;;5096101;28;20044;-61
2023/07/08 08:35:37;;;;;;;3.72;2.97;;;24.50;99.90;;;;;;5095809;28;20047;-61
2023/07/08 08:38:04;;;;;;;9.45;2.75;;;24.60;99.90;;;;;;5095509;28;20040;-61
2023/07/08 08:40:30;;;;;;;7.45;3.38;;;24.90;99.90;;;;;;5095761;28;20067;-61
2023/07/08 08:43:06;;;;;;;3.75;2.55;;;24.70;99.90;;;;;;5095778;28;20039;-61
2023/07/08 08:45:39;;;;;;;8.05;3.45;;;25.30;99.90;;;;;;5095876;28;20040;-61
2023/07/08 08:48:10;;;;;;;3.88;2.95;;;25.00;99.90;;;;;;5095274;28;20042;-60
2023/07/08 08:50:53;;;;;;;5.55;2.95;;;25.00;99.90;;;;;;5095651;28;20502;-61
2023/07/08 08:53:22;;;;;;;8.10;2.78;;;25.10;99.90;;;;;;5095654;28;20028;-61
2023/07/08 08:56:03;;;;;;;3.25;2.33;;;25.10;99.90;;;;;;5095353;28;20036;-61
2023/07/08 08:58:37;;;;;;;3.88;2.97;;;25.20;99.90;;;;;;5077545;28;20079;-62
2023/07/08 09:01:11;;;;;;;7.95;3.35;;;25.20;99.90;;;;;;5095207;28;20090;-62
2023/07/08 09:04:01;;;;;;;5.05;3.15;;;25.30;99.90;;;;;;5077333;28;20047;-62
2023/07/08 09:06:30;;;;;;;4.75;2.85;;;25.40;99.90;;;;;;5095057;28;20044;-62
2023/07/08 09:09:01;;;;;;;4.22;2.85;;;25.40;99.90;;;;;;5077244;28;20045;-63
2023/07/08 09:11:40;;;;;;;4.15;3.10;;;25.50;99.90;;;;;;5077061;28;20475;-62
2023/07/08 09:14:16;;;;;;;6.10;2.88;;;25.60;99.90;;;;;;5076808;28;20129;-62
2023/07/08 09:17:19;;;;;;;4.15;2.65;;;25.70;99.90;;;;;;5095166;28;20498;-61
2023/07/08 09:20:22;;;;;;;3.38;2.47;;;25.70;99.90;;;;;;5064331;28;20080;-62
2023/07/08 09:22:55;;;;;;;4.40;3.10;;;25.90;99.90;;;;;;5090215;28;20052;-61
2023/07/08 09:25:37;;;;;;;3.38;3.00;;;25.90;99.90;;;;;;5095064;28;20040;-60
2023/07/08 09:28:02;;;;;;;7.10;3.20;;;26.00;99.90;;;;;;5095039;28;20373;-61
2023/07/08 09:30:30;;;;;;;4.32;2.90;;;26.10;99.90;;;;;;5094924;28;20127;-61
2023/07/08 09:32:56;;;;;;;3.55;2.40;;;26.20;99.90;;;;;;5094970;28;20479;-62
2023/07/08 09:35:28;;;;;;;5.45;2.72;;;26.20;99.90;;;;;;5094916;28;20399;-61
2023/07/08 09:37:54;;;;;;;4.15;2.72;;;26.40;99.90;;;;;;5076457;28;20098;-61
2023/07/08 09:40:30;;;;;;;5.57;3.05;;;26.40;99.90;;;;;;5076431;28;20055;-61
2023/07/08 09:43:03;;;;;;;3.95;2.65;;;26.50;99.90;;;;;;5076621;28;20058;-62
2023/07/08 09:45:39;;;;;;;3.72;2.38;;;26.70;99.90;;;;;;5094286;28;20055;-61
2023/07/08 09:48:17;;;;;;;5.78;2.97;;;26.50;99.90;;;;;;5094690;28;20483;-61
2023/07/08 09:50:44;;;;;;;3.78;3.08;;;26.50;99.90;;;;;;5094471;28;20043;-61
2023/07/08 09:53:14;;;;;;;4.53;2.78;;;26.40;99.90;;;;;;5094466;28;20036;-61
2023/07/08 09:55:41;;;;;;;7.38;3.33;;;26.30;99.90;;;;;;5094514;28;20111;-61
2023/07/08 09:58:13;;;;;;;8.80;2.85;;;26.70;99.90;;;;;;5094459;28;20039;-61
2023/07/08 10:00:41;;;;;;;5.07;3.53;;;26.80;99.90;;;;;;5093687;28;20097;-61
2023/07/08 10:03:22;;;;;;;7.75;2.97;;;26.90;99.90;;;;;;5094382;28;20036;-61
2023/07/08 10:05:49;;;;;;;7.72;3.10;;;27.00;99.90;;;;;;5093878;28;20099;-60
2023/07/08 10:08:18;;;;;;;5.25;3.20;;;27.00;99.90;;;;;;5094293;28;20040;-60
2023/07/08 10:10:52;;;;;;;3.70;2.78;;;27.00;99.90;;;;;;5094193;28;20448;-61
2023/07/08 10:13:47;;;;;;;5.38;3.10;;;27.00;99.90;;;;;;5094233;28;20067;-61
2023/07/08 10:16:21;;;;;;;4.60;3.00;;;27.20;99.90;;;;;;5093260;28;20097;-61
2023/07/08 10:18:47;;;;;;;3.90;2.63;;;27.20;99.90;;;;;;5094079;28;20062;-62
2023/07/08 10:21:15;;;;;;;3.67;2.55;;;27.80;99.90;;;;;;5094002;28;20043;-62
2023/07/08 10:23:52;;;;;;;4.60;2.92;;;27.20;99.90;;;;;;5093891;28;20136;-62
2023/07/08 10:26:28;;;;;;;5.72;3.10;;;27.20;99.90;;;;;;5093950;28;20048;-63
2023/07/08 10:29:03;;;;;;;4.15;3.10;;;27.30;99.90;;;;;;5075336;28;20051;-62
2023/07/08 10:31:32;;;;;;;4.68;3.28;;;27.30;99.90;;;;;;5075318;28;20055;-62
2023/07/08 10:34:22;;;;;;;6.80;3.17;;;27.30;99.90;;;;;;5093779;28;20101;-66
2023/07/08 10:37:01;;;;;;;6.53;3.33;;;27.30;99.90;;;;;;5093704;28;20047;-62
2023/07/08 10:39:55;;;;;;;4.25;2.90;;;27.30;99.90;;;;;;5076463;28;20040;-63
2023/07/08 10:42:53;;;;;;;4.43;3.20;;;27.40;99.90;;;;;;5093330;28;20514;-62
2023/07/08 10:45:31;;;;;;;4.75;3.40;;;27.50;99.90;;;;;;5051852;28;20134;-63
2023/07/08 10:48:25;;;;;;;4.65;3.25;;;27.50;99.90;;;;;;5093560;28;20040;-61
2023/07/08 10:51:07;;;;;;;4.65;3.10;;;27.40;99.90;;;;;;5075204;28;20055;-61
2023/07/08 17:59:29;;;;;;;9.57;5.90;;;32.40;79.30;;;;;;5090037;28;20435;-64
2023/07/08 18:01:55;;;;;;;9.93;6.07;;;31.70;86.40;;;;;;5090285;28;20060;-66
2023/07/08 18:04:21;;;;;;;6.35;4.82;;;31.40;99.90;;;;;;5090273;28;20062;-65
2023/07/08 18:06:46;;;;;;;6.97;4.85;;;31.20;90.30;;;;;;5090225;28;20036;-65
2023/07/08 18:09:12;;;;;;;11.43;5.57;;;31.00;81.70;;;;;;5090331;28;20034;-64
2023/07/08 18:11:43;;;;;;;7.78;5.00;;;30.70;80.10;;;;;;5090189;28;20116;-64
2023/07/08 18:14:10;;;;;;;6.78;4.70;;;30.60;78.90;;;;;;5088666;28;20083;-64
2023/07/08 18:16:36;;;;;;;6.32;4.90;;;30.50;77.70;;;;;;5088913;28;20044;-67
2023/07/08 18:19:01;;;;;;;7.25;4.90;;;30.20;77.90;;;;;;5089963;28;20491;-63
2023/07/08 18:21:27;;;;;;;9.93;4.97;;;30.00;77.40;;;;;;5090211;28;20059;-63
2023/07/08 18:23:57;;;;;;;7.22;5.13;;;30.20;99.90;;;;;;5088718;28;20372;-70
2023/07/08 18:26:25;;;;;;;7.28;4.68;;;29.80;1.00;;;;;;5089649;28;20079;-71
2023/07/08 18:28:51;;;;;;;7.20;5.35;;;29.70;99.90;;;;;;5089972;28;20048;-69
2023/07/08 18:31:28;;;;;;;8.05;4.80;;;29.60;99.90;;;;;;5089702;28;20051;-65
2023/07/08 18:33:54;;;;;;;7.90;4.88;;;29.30;99.90;;;;;;5089688;28;20048;-65
2023/07/08 18:36:20;;;;;;;8.68;4.82;;;;;;;;;;5089776;28;20033;-66
2023/07/08 18:38:46;;;;;;;6.70;4.57;;;;;;;;;;5089622;28;20484;-65
2023/07/08 18:41:23;;;;;;;6.45;4.35;;;28.80;99.90;;;;;;5089435;28;20119;-65
2023/07/08 18:43:49;;;;;;;8.70;5.57;;;28.80;99.90;;;;;;5089608;28;20075;-67
2023/07/08 18:46:16;;;;;;;9.32;5.40;;;28.80;99.90;;;;;;5089562;28;20121;-65
2023/07/08 18:48:41;;;;;;;6.90;4.45;;;29.20;99.90;;;;;;5089479;28;20048;-65
2023/07/08 18:51:15;;;;;;;9.38;4.80;;;28.00;69.80;;;;;;5087893;28;20066;-66
2023/07/08 18:53:42;;;;;;;6.90;4.07;;;28.10;69.80;;;;;;5089188;28;20080;-66
2023/07/08 18:56:16;;;;;;;6.22;4.30;;;28.40;68.10;;;;;;5089467;28;20103;-66
2023/07/08 18:58:43;;;;;;;7.10;4.55;;;27.90;67.70;;;;;;5089138;28;20060;-65
2023/07/08 19:01:26;;;;;;;6.07;4.68;;;27.80;79.20;;;;;;5089279;28;20040;-66
2023/07/08 19:03:53;;;;;;;7.72;4.65;;;27.60;65.80;;;;;;5089300;28;20058;-68
2023/07/08 19:06:19;;;;;;;8.85;5.10;;;27.50;65.30;;;;;;5089395;28;20086;-68
2023/07/08 19:08:47;;;;;;;7.53;4.88;;;27.30;65.20;;;;;;5087738;28;20081;-68
2023/07/08 19:11:28;;;;;;;7.05;4.53;;;27.30;66.10;;;;;;5075637;28;20560;-67
2023/07/08 19:13:54;;;;;;;6.95;5.07;;;27.20;66.50;;;;;;5075270;28;20400;-68
2023/07/08 19:16:21;;;;;;;8.60;4.70;;;27.10;65.60;;;;;;5074108;28;20043;-69
2023/07/08 19:18:49;;;;;;;6.95;4.80;;;27.00;64.90;;;;;;5075376;28;20028;-69
2023/07/08 19:21:17;;;;;;;6.32;4.47;;;26.90;65.30;;;;;;5074104;28;20071;-69
2023/07/08 19:23:49;;;;;;;7.45;5.05;;;26.80;64.40;;;;;;5075380;28;20476;-70
2023/07/08 19:26:18;;;;;;;6.47;4.75;;;26.70;64.50;;;;;;5075315;28;20040;-73
2023/07/08 19:28:44;;;;;;;12.30;5.13;;;26.70;64.80;;;;;;5075333;28;20049;-68
2023/07/08 19:31:29;;;;;;;7.35;5.03;;;26.60;65.20;;;;;;5075254;28;20040;-68
2023/07/08 19:33:54;;;;;;;9.90;4.65;;;26.60;64.80;;;;;;5075213;28;20522;-67
2023/07/08 19:36:21;;;;;;;8.55;4.50;;;26.50;65.10;;;;;;5075141;28;20044;-68
2023/07/08 19:38:50;;;;;;;7.78;4.35;;;26.40;65.50;;;;;;5075016;28;20392;-68
2023/07/08 19:41:19;;;;;;;7.57;4.78;;;26.40;99.90;;;;;;5074987;28;20043;-69
2023/07/08 19:43:45;;;;;;;12.23;5.10;;;26.50;99.90;;;;;;5075035;28;20051;-68
2023/07/08 19:46:15;;;;;;;10.48;5.03;;;26.60;99.90;;;;;;5074913;28;20365;-69
2023/07/08 19:48:44;;;;;;;10.07;5.13;;;26.40;99.90;;;;;;5073713;28;20549;-68
2023/07/08 19:51:11;;;;;;;7.03;4.30;;;26.00;99.90;;;;;;5074592;28;20040;-68
2023/07/08 19:53:37;;;;;;;8.75;5.15;;;25.90;99.90;;;;;;5074922;28;20489;-68
2023/07/08 19:56:17;;;;;;;7.38;4.53;;;25.80;74.20;;;;;;5074799;28;20090;-68
2023/07/08 19:58:44;;;;;;;6.85;4.90;;;25.70;72.60;;;;;;5074221;28;20052;-71
2023/07/08 20:01:10;;;;;;;8.75;4.80;;;25.60;69.00;;;;;;5074866;28;20037;-71
2023/07/08 20:03:36;;;;;;;7.53;4.85;;;25.70;70.80;;;;;;5074964;28;20082;-72